Bao An Cheng 69 — BVBD5 — position and weather

sailwx.info

Track history (hours):
 
Tides and Currents Weather Stations Pressure Air Temp Water Temp Dewpoint Dewpoint Depression Visibility Wind Speed Wind Dir Waves Ship Positions

Bao An Cheng 69

Last reported at 2014-Sep-14 12:13 UTC. Time now 2014-Sep-17 09:36 UTC.
Position N 22°05' E 113°57'.

Length 121 m; draft 6.7 m.

MMSI: 412703090.

Date/timePositionNaut miles runAvg speedWind from/ knotsBaromVisibWave heightAir tempDewpointWater temp
2014-Sep-14 12:13N 22°05' E 113°57'6 8.5
2014-Sep-14 11:30N 22°03' E 113°51'8 8.6
2014-Sep-14 10:31N 21°60' E 113°42'9 8.7
2014-Sep-14 09:27N 21°54' E 113°34'17 8.5
2014-Sep-14 07:24N 21°45' E 113°19'18 8.8
2014-Sep-14 05:22N 21°36' E 113°02'159 8.8
2014-Sep-13 11:15N 20°14' E 110°36'6 8.4
2014-Sep-13 10:33N 20°14' E 110°29'8 8.3
2014-Sep-13 09:34N 20°11' E 110°21'8 7.2
2014-Sep-13 08:30N 20°05' E 110°16'3 3.4
2014-Sep-13 07:32N 20°02' E 110°17'0 0.0
2014-Sep-13 03:26N 20°02' E 110°17'0 0.0
2014-Sep-13 02:32N 20°02' E 110°17'0 0.0
2014-Sep-12 23:32N 20°02' E 110°17'0 0.0
2014-Sep-12 21:32N 20°02' E 110°17'0 0.0
2014-Sep-12 20:32N 20°02' E 110°17'0 0.0
2014-Sep-12 19:32N 20°02' E 110°17'1 1.4
2014-Sep-12 18:33N 20°03' E 110°16'2 1.6
2014-Sep-12 17:33N 20°05' E 110°16'0 0.1
2014-Sep-12 16:27N 20°05' E 110°16'0 0.0
2014-Sep-12 14:27N 20°05' E 110°16'0 0.0
2014-Sep-12 12:27N 20°05' E 110°16'0 0.1
2014-Sep-12 11:09N 20°05' E 110°16'0 0.0
2014-Sep-12 10:17N 20°05' E 110°16'0 0.0
2014-Sep-12 08:24N 20°05' E 110°16'0 0.0
2014-Sep-12 07:30N 20°05' E 110°16'0 0.0
2014-Sep-12 06:30N 20°05' E 110°16'0 0.0
2014-Sep-12 05:30N 20°05' E 110°16'0 0.1
2014-Sep-12 03:30N 20°05' E 110°16'0 0.0
2014-Sep-12 02:24N 20°05' E 110°16'0 0.0
2014-Sep-12 00:24N 20°05' E 110°16'0 0.0
2014-Sep-11 23:30N 20°05' E 110°16'0 0.1
2014-Sep-11 22:26N 20°05' E 110°16'0 0.1
2014-Sep-11 21:08N 20°05' E 110°16'0 0.0
2014-Sep-11 20:32N 20°05' E 110°16'0 0.0
2014-Sep-11 19:08N 20°05' E 110°16'0 0.0
2014-Sep-11 17:32N 20°05' E 110°16'0 0.1
2014-Sep-11 16:32N 20°05' E 110°16'0 0.1
2014-Sep-11 15:26N 20°05' E 110°16'0 0.0
2014-Sep-11 14:32N 20°05' E 110°16'0 0.0
2014-Sep-11 13:32N 20°05' E 110°16'0 0.0
2014-Sep-11 12:14N 20°05' E 110°16'0 0.0
2014-Sep-11 11:20N 20°05' E 110°16'0 0.1
2014-Sep-11 10:26N 20°05' E 110°16'0 0.1
2014-Sep-11 09:08N 20°05' E 110°16'0 0.0
2014-Sep-11 07:14N 20°05' E 110°16'0 0.0
2014-Sep-11 06:32N 20°05' E 110°16'0 0.0
2014-Sep-11 02:20N 20°05' E 110°16'0 0.1
2014-Sep-11 00:14N 20°05' E 110°16'0 0.1
2014-Sep-10 22:14N 20°05' E 110°16'0 0.0
2014-Sep-10 21:20N 20°05' E 110°16'0 0.0
2014-Sep-10 20:32N 20°05' E 110°16'0 0.0
2014-Sep-10 19:14N 20°05' E 110°16'0 0.0
2014-Sep-10 18:20N 20°05' E 110°16'0 0.0
2014-Sep-10 17:14N 20°05' E 110°16'0 0.1
2014-Sep-10 16:32N 20°05' E 110°16'0 0.1
2014-Sep-10 15:20N 20°05' E 110°16'0 0.0
2014-Sep-10 13:26N 20°05' E 110°16'0 0.0
2014-Sep-10 10:08N 20°05' E 110°16'0 0.1
2014-Sep-10 09:20N 20°05' E 110°16'0 0.1
2014-Sep-10 08:26N 20°05' E 110°16'0 0.0
2014-Sep-10 06:26N 20°05' E 110°16'0 0.0
2014-Sep-10 05:14N 20°05' E 110°16'0 0.0
2014-Sep-10 04:32N 20°05' E 110°16'0 0.0
2014-Sep-10 02:09N 20°05' E 110°16'0 0.0
2014-Sep-09 22:23N 20°05' E 110°16'0 0.0
2014-Sep-09 20:18N 20°05' E 110°16'1 1.2
2014-Sep-09 19:33N 20°06' E 110°16'7 6.7
2014-Sep-09 18:33N 20°12' E 110°19'1110.0
2014-Sep-09 17:28N 20°14' E 110°30'11 9.2
2014-Sep-09 16:13N 20°15' E 110°42'22 8.2
2014-Sep-09 13:31N 20°32' E 110°57'147 8.5
2014-Sep-08 20:15N 21°43' E 113°15'7 8.8
2014-Sep-08 19:31N 21°46' E 113°21'44 1.6
2014-Sep-07 15:27N 22°08' E 114°03'154 9.6
2014-Sep-06 23:23N 22°57' E 116°41'7 8.2
2014-Sep-06 22:33N 23°01' E 116°47'9 8.8
2014-Sep-06 21:31N 23°05' E 116°56'39 9.5
2014-Sep-06 17:26N 23°29' E 117°30'9 9.5
2014-Sep-06 16:32N 23°35' E 117°36'9 9.5
2014-Sep-06 15:33N 23°41' E 117°44'1210.3
2014-Sep-06 14:25N 23°48' E 117°54'910.2
2014-Sep-06 13:32N 23°54' E 118°01'10 9.7
2014-Sep-06 12:31N 24°01' E 118°09'9 9.3
2014-Sep-06 11:30N 24°07' E 118°17'9 9.1
2014-Sep-06 10:33N 24°14' E 118°23'9 8.8
2014-Sep-06 09:33N 24°20' E 118°29'9 8.6
2014-Sep-06 08:33N 24°26' E 118°36'9 8.6
2014-Sep-06 07:31N 24°33' E 118°42'9 9.0
2014-Sep-06 06:33N 24°41' E 118°46'7 7.3
2014-Sep-06 05:31N 24°49' E 118°46'2 2.1
2014-Sep-06 04:26N 24°49' E 118°43'0 0.0
2014-Sep-06 03:29N 24°49' E 118°43'0 0.0
2014-Sep-06 02:32N 24°49' E 118°43'0 0.0
2014-Sep-06 01:17N 24°49' E 118°43'0 0.0
2014-Sep-06 00:26N 24°49' E 118°43'0 0.0
2014-Sep-05 23:23N 24°49' E 118°43'0 0.0
2014-Sep-05 22:26N 24°49' E 118°43'0 0.0
2014-Sep-05 21:32N 24°49' E 118°43'0 0.0
2014-Sep-05 20:32N 24°49' E 118°43'0 0.0
2014-Sep-05 19:29N 24°49' E 118°43'0 0.0
2014-Sep-05 17:29N 24°49' E 118°43'0 0.0
2014-Sep-05 16:32N 24°49' E 118°43'0 0.0
2014-Sep-05 15:32N 24°49' E 118°43'0 0.0
2014-Sep-05 14:29N 24°49' E 118°43'0 0.0
2014-Sep-05 13:23N 24°49' E 118°43'0 0.0
2014-Sep-05 12:29N 24°49' E 118°43'0 0.0
2014-Sep-05 11:26N 24°49' E 118°43'0 0.0
2014-Sep-05 10:32N 24°49' E 118°43'0 0.0
2014-Sep-05 09:32N 24°49' E 118°43'0 0.0
2014-Sep-05 08:31N 24°49' E 118°43'1 0.7
2014-Sep-05 07:33N 24°49' E 118°44'0 0.1
2014-Sep-05 06:33N 24°49' E 118°44'1 0.5
2014-Sep-05 05:33N 24°49' E 118°44'5 4.5
2014-Sep-05 04:34N 24°48' E 118°49'10 8.8
2014-Sep-05 03:26N 24°51' E 118°60'8 9.6
2014-Sep-05 02:33N 24°54' E 119°08'  
Track history (hours):
 
Tides and Currents Weather Stations Pressure Air Temp Water Temp Dewpoint Dewpoint Depression Visibility Wind Speed Wind Dir Waves Ship Positions

Bao An Cheng 69

Last reported at 2014-Sep-14 12:13 UTC. Time now 2014-Sep-17 09:36 UTC.
Position N 22°05' E 113°57'.

Length 121 m; draft 6.7 m.

MMSI: 412703090.

Date/timePositionNaut miles runAvg speedWind from/ knotsBaromVisibWave heightAir tempDewpointWater temp
2014-Sep-14 12:13N 22°05' E 113°57'6 8.5
2014-Sep-14 11:30N 22°03' E 113°51'8 8.6
2014-Sep-14 10:31N 21°60' E 113°42'9 8.7
2014-Sep-14 09:27N 21°54' E 113°34'17 8.5
2014-Sep-14 07:24N 21°45' E 113°19'18 8.8
2014-Sep-14 05:22N 21°36' E 113°02'159 8.8
2014-Sep-13 11:15N 20°14' E 110°36'6 8.4
2014-Sep-13 10:33N 20°14' E 110°29'8 8.3
2014-Sep-13 09:34N 20°11' E 110°21'8 7.2
2014-Sep-13 08:30N 20°05' E 110°16'3 3.4
2014-Sep-13 07:32N 20°02' E 110°17'0 0.0
2014-Sep-13 03:26N 20°02' E 110°17'0 0.0
2014-Sep-13 02:32N 20°02' E 110°17'0 0.0
2014-Sep-12 23:32N 20°02' E 110°17'0 0.0
2014-Sep-12 21:32N 20°02' E 110°17'0 0.0
2014-Sep-12 20:32N 20°02' E 110°17'0 0.0
2014-Sep-12 19:32N 20°02' E 110°17'1 1.4
2014-Sep-12 18:33N 20°03' E 110°16'2 1.6
2014-Sep-12 17:33N 20°05' E 110°16'0 0.1
2014-Sep-12 16:27N 20°05' E 110°16'0 0.0
2014-Sep-12 14:27N 20°05' E 110°16'0 0.0
2014-Sep-12 12:27N 20°05' E 110°16'0 0.1
2014-Sep-12 11:09N 20°05' E 110°16'0 0.0
2014-Sep-12 10:17N 20°05' E 110°16'0 0.0
2014-Sep-12 08:24N 20°05' E 110°16'0 0.0
2014-Sep-12 07:30N 20°05' E 110°16'0 0.0
2014-Sep-12 06:30N 20°05' E 110°16'0 0.0
2014-Sep-12 05:30N 20°05' E 110°16'0 0.1
2014-Sep-12 03:30N 20°05' E 110°16'0 0.0
2014-Sep-12 02:24N 20°05' E 110°16'0 0.0
2014-Sep-12 00:24N 20°05' E 110°16'0 0.0
2014-Sep-11 23:30N 20°05' E 110°16'0 0.1
2014-Sep-11 22:26N 20°05' E 110°16'0 0.1
2014-Sep-11 21:08N 20°05' E 110°16'0 0.0
2014-Sep-11 20:32N 20°05' E 110°16'0 0.0
2014-Sep-11 19:08N 20°05' E 110°16'0 0.0
2014-Sep-11 17:32N 20°05' E 110°16'0 0.1
2014-Sep-11 16:32N 20°05' E 110°16'0 0.1
2014-Sep-11 15:26N 20°05' E 110°16'0 0.0
2014-Sep-11 14:32N 20°05' E 110°16'0 0.0
2014-Sep-11 13:32N 20°05' E 110°16'0 0.0
2014-Sep-11 12:14N 20°05' E 110°16'0 0.0
2014-Sep-11 11:20N 20°05' E 110°16'0 0.1
2014-Sep-11 10:26N 20°05' E 110°16'0 0.1
2014-Sep-11 09:08N 20°05' E 110°16'0 0.0
2014-Sep-11 07:14N 20°05' E 110°16'0 0.0
2014-Sep-11 06:32N 20°05' E 110°16'0 0.0
2014-Sep-11 02:20N 20°05' E 110°16'0 0.1
2014-Sep-11 00:14N 20°05' E 110°16'0 0.1
2014-Sep-10 22:14N 20°05' E 110°16'0 0.0
2014-Sep-10 21:20N 20°05' E 110°16'0 0.0
2014-Sep-10 20:32N 20°05' E 110°16'0 0.0
2014-Sep-10 19:14N 20°05' E 110°16'0 0.0
2014-Sep-10 18:20N 20°05' E 110°16'0 0.0
2014-Sep-10 17:14N 20°05' E 110°16'0 0.1
2014-Sep-10 16:32N 20°05' E 110°16'0 0.1
2014-Sep-10 15:20N 20°05' E 110°16'0 0.0
2014-Sep-10 13:26N 20°05' E 110°16'0 0.0
2014-Sep-10 10:08N 20°05' E 110°16'0 0.1
2014-Sep-10 09:20N 20°05' E 110°16'0 0.1
2014-Sep-10 08:26N 20°05' E 110°16'0 0.0
2014-Sep-10 06:26N 20°05' E 110°16'0 0.0
2014-Sep-10 05:14N 20°05' E 110°16'0 0.0
2014-Sep-10 04:32N 20°05' E 110°16'0 0.0
2014-Sep-10 02:09N 20°05' E 110°16'0 0.0
2014-Sep-09 22:23N 20°05' E 110°16'0 0.0
2014-Sep-09 20:18N 20°05' E 110°16'1 1.2
2014-Sep-09 19:33N 20°06' E 110°16'7 6.7
2014-Sep-09 18:33N 20°12' E 110°19'1110.0
2014-Sep-09 17:28N 20°14' E 110°30'11 9.2
2014-Sep-09 16:13N 20°15' E 110°42'22 8.2
2014-Sep-09 13:31N 20°32' E 110°57'147 8.5
2014-Sep-08 20:15N 21°43' E 113°15'7 8.8
2014-Sep-08 19:31N 21°46' E 113°21'44 1.6
2014-Sep-07 15:27N 22°08' E 114°03'154 9.6
2014-Sep-06 23:23N 22°57' E 116°41'7 8.2
2014-Sep-06 22:33N 23°01' E 116°47'9 8.8
2014-Sep-06 21:31N 23°05' E 116°56'39 9.5
2014-Sep-06 17:26N 23°29' E 117°30'9 9.5
2014-Sep-06 16:32N 23°35' E 117°36'9 9.5
2014-Sep-06 15:33N 23°41' E 117°44'1210.3
2014-Sep-06 14:25N 23°48' E 117°54'910.2
2014-Sep-06 13:32N 23°54' E 118°01'10 9.7
2014-Sep-06 12:31N 24°01' E 118°09'9 9.3
2014-Sep-06 11:30N 24°07' E 118°17'9 9.1
2014-Sep-06 10:33N 24°14' E 118°23'9 8.8
2014-Sep-06 09:33N 24°20' E 118°29'9 8.6
2014-Sep-06 08:33N 24°26' E 118°36'9 8.6
2014-Sep-06 07:31N 24°33' E 118°42'9 9.0
2014-Sep-06 06:33N 24°41' E 118°46'7 7.3
2014-Sep-06 05:31N 24°49' E 118°46'2 2.1
2014-Sep-06 04:26N 24°49' E 118°43'0 0.0
2014-Sep-06 03:29N 24°49' E 118°43'0 0.0
2014-Sep-06 02:32N 24°49' E 118°43'0 0.0
2014-Sep-06 01:17N 24°49' E 118°43'0 0.0
2014-Sep-06 00:26N 24°49' E 118°43'0 0.0
2014-Sep-05 23:23N 24°49' E 118°43'0 0.0
2014-Sep-05 22:26N 24°49' E 118°43'0 0.0
2014-Sep-05 21:32N 24°49' E 118°43'0 0.0
2014-Sep-05 20:32N 24°49' E 118°43'0 0.0
2014-Sep-05 19:29N 24°49' E 118°43'0 0.0
2014-Sep-05 17:29N 24°49' E 118°43'0 0.0
2014-Sep-05 16:32N 24°49' E 118°43'0 0.0
2014-Sep-05 15:32N 24°49' E 118°43'0 0.0
2014-Sep-05 14:29N 24°49' E 118°43'0 0.0
2014-Sep-05 13:23N 24°49' E 118°43'0 0.0
2014-Sep-05 12:29N 24°49' E 118°43'0 0.0
2014-Sep-05 11:26N 24°49' E 118°43'0 0.0
2014-Sep-05 10:32N 24°49' E 118°43'0 0.0
2014-Sep-05 09:32N 24°49' E 118°43'0 0.0
2014-Sep-05 08:31N 24°49' E 118°43'1 0.7
2014-Sep-05 07:33N 24°49' E 118°44'0 0.1
2014-Sep-05 06:33N 24°49' E 118°44'1 0.5
2014-Sep-05 05:33N 24°49' E 118°44'5 4.5
2014-Sep-05 04:34N 24°48' E 118°49'10 8.8
2014-Sep-05 03:26N 24°51' E 118°60'8 9.6
2014-Sep-05 02:33N 24°54' E 119°08'  

Dump ship's entire track history